N323AB KDEN-KASE
Flight info
| Callsign | N323AB |
|---|---|
| Flight time | 0h 32m |
| Altitude | 24000 |
| Route | CONNR7 WERNR DCT DBL DCT |
| Aircraft | SF50/L-V/N |
Departure
| Time | 2026-05-06 23:43 |
|---|---|
| Airport | Denver International Airport (KDEN) |
Arrival
| Time | 2026-05-07 00:15 |
|---|---|
| Airport | Aspen-Pitkin County Airport (Sardy Field) (KASE) |
| Time | Latitude | Longitude | Altitude | Speed | Heading |
|---|---|---|---|---|---|
| 2026-05-06 23:07 | 39.83932 | -104.66485 | 5374 ft | 0 kts | 139° |
| 2026-05-06 23:33 | 39.83963 | -104.66424 | 5372 ft | 19 kts | 32° |
| 2026-05-06 23:33 | 39.83998 | -104.66387 | 5369 ft | 0 kts | 63° |
| 2026-05-06 23:34 | 39.83999 | -104.66385 | 5369 ft | 2 kts | 63° |
| 2026-05-06 23:34 | 39.84018 | -104.66331 | 5367 ft | 10 kts | 67° |
| 2026-05-06 23:34 | 39.84078 | -104.66265 | 5367 ft | 13 kts | 13° |
| 2026-05-06 23:35 | 39.84167 | -104.66258 | 5370 ft | 13 kts | 359° |
| 2026-05-06 23:35 | 39.84237 | -104.66257 | 5369 ft | 8 kts | 2° |
| 2026-05-06 23:35 | 39.84300 | -104.66255 | 5373 ft | 11 kts | 0° |
| 2026-05-06 23:35 | 39.84398 | -104.66250 | 5373 ft | 17 kts | 360° |
| 2026-05-06 23:36 | 39.84536 | -104.66251 | 5374 ft | 22 kts | 0° |
| 2026-05-06 23:36 | 39.84707 | -104.66250 | 5375 ft | 27 kts | 360° |
| 2026-05-06 23:36 | 39.84912 | -104.66247 | 5372 ft | 31 kts | 0° |
| 2026-05-06 23:36 | 39.85117 | -104.66244 | 5376 ft | 23 kts | 1° |
| 2026-05-06 23:37 | 39.85202 | -104.66289 | 5377 ft | 11 kts | 285° |
| 2026-05-06 23:37 | 39.85206 | -104.66369 | 5378 ft | 6 kts | 270° |
| 2026-05-06 23:37 | 39.85206 | -104.66430 | 5380 ft | 8 kts | 269° |
| 2026-05-06 23:37 | 39.85220 | -104.66555 | 5382 ft | 19 kts | 298° |
| 2026-05-06 23:38 | 39.85233 | -104.66779 | 5380 ft | 32 kts | 271° |
| 2026-05-06 23:38 | 39.85235 | -104.67099 | 5380 ft | 38 kts | 270° |
| 2026-05-06 23:38 | 39.85237 | -104.67443 | 5380 ft | 36 kts | 270° |
| 2026-05-06 23:38 | 39.85239 | -104.67736 | 5379 ft | 29 kts | 270° |
| 2026-05-06 23:39 | 39.85241 | -104.67975 | 5379 ft | 24 kts | 269° |
| 2026-05-06 23:39 | 39.85241 | -104.68163 | 5379 ft | 18 kts | 266° |
| 2026-05-06 23:39 | 39.85215 | -104.68300 | 5374 ft | 15 kts | 255° |
| 2026-05-06 23:39 | 39.85207 | -104.68438 | 5373 ft | 16 kts | 269° |
| 2026-05-06 23:40 | 39.85206 | -104.68586 | 5366 ft | 17 kts | 268° |
| 2026-05-06 23:40 | 39.85203 | -104.68746 | 5360 ft | 18 kts | 268° |
| 2026-05-06 23:40 | 39.85199 | -104.68914 | 5352 ft | 19 kts | 268° |
| 2026-05-06 23:40 | 39.85197 | -104.69084 | 5345 ft | 19 kts | 269° |
| 2026-05-06 23:41 | 39.85199 | -104.69254 | 5338 ft | 18 kts | 270° |
| 2026-05-06 23:41 | 39.85200 | -104.69415 | 5334 ft | 16 kts | 268° |
| 2026-05-06 23:41 | 39.85202 | -104.69516 | 5341 ft | 5 kts | 272° |
| 2026-05-06 23:41 | 39.85203 | -104.69564 | 5344 ft | 18 kts | 270° |
| 2026-05-06 23:42 | 39.85250 | -104.69659 | 5346 ft | 0 kts | 2° |
| 2026-05-06 23:42 | 39.85367 | -104.69657 | 5348 ft | 46 kts | 0° |
| 2026-05-06 23:42 | 39.85886 | -104.69654 | 5360 ft | 100 kts | 359° |
| 2026-05-06 23:42 | 39.86714 | -104.69649 | 5549 ft | 128 kts | 0° |
| 2026-05-06 23:43 | 39.87623 | -104.69618 | 6006 ft | 134 kts | 0° |
| 2026-05-06 23:43 | 39.88595 | -104.69593 | 6475 ft | 154 kts | 359° |
| 2026-05-06 23:43 | 39.89693 | -104.69586 | 7031 ft | 171 kts | 358° |
| 2026-05-06 23:43 | 39.91018 | -104.69537 | 7284 ft | 204 kts | 1° |
| 2026-05-06 23:44 | 39.92510 | -104.69461 | 7644 ft | 223 kts | 356° |
| 2026-05-06 23:44 | 39.93958 | -104.70230 | 7999 ft | 235 kts | 317° |
| 2026-05-06 23:44 | 39.94751 | -104.72101 | 8348 ft | 245 kts | 281° |
| 2026-05-06 23:44 | 39.94499 | -104.74272 | 8696 ft | 246 kts | 245° |
| 2026-05-06 23:45 | 39.93538 | -104.76101 | 9064 ft | 244 kts | 235° |
| 2026-05-06 23:45 | 39.92576 | -104.77936 | 9329 ft | 246 kts | 242° |
| 2026-05-06 23:45 | 39.91883 | -104.79940 | 9594 ft | 246 kts | 253° |
| 2026-05-06 23:45 | 39.91390 | -104.82075 | 9859 ft | 247 kts | 256° |
| 2026-05-06 23:46 | 39.90875 | -104.84213 | 10122 ft | 248 kts | 253° |
| 2026-05-06 23:46 | 39.90301 | -104.86334 | 10364 ft | 248 kts | 253° |
| 2026-05-06 23:46 | 39.89733 | -104.88455 | 10608 ft | 248 kts | 254° |
| 2026-05-06 23:46 | 39.89176 | -104.90581 | 10853 ft | 248 kts | 254° |
| 2026-05-06 23:47 | 39.88618 | -104.92701 | 11096 ft | 247 kts | 253° |
| 2026-05-06 23:47 | 39.88061 | -104.94810 | 11344 ft | 246 kts | 253° |
| 2026-05-06 23:47 | 39.87512 | -104.96885 | 11592 ft | 245 kts | 254° |
| 2026-05-06 23:47 | 39.86961 | -104.98980 | 11846 ft | 244 kts | 254° |
| 2026-05-06 23:48 | 39.86410 | -105.01066 | 12102 ft | 243 kts | 254° |
| 2026-05-06 23:48 | 39.85860 | -105.03140 | 12352 ft | 242 kts | 254° |
| 2026-05-06 23:48 | 39.85314 | -105.05207 | 12586 ft | 242 kts | 255° |
| 2026-05-06 23:48 | 39.84764 | -105.07280 | 12794 ft | 242 kts | 255° |
| 2026-05-06 23:49 | 39.84214 | -105.09354 | 13007 ft | 242 kts | 255° |
| 2026-05-06 23:49 | 39.83662 | -105.11426 | 13218 ft | 242 kts | 255° |
| 2026-05-06 23:49 | 39.83120 | -105.13468 | 13429 ft | 242 kts | 255° |
| 2026-05-06 23:49 | 39.82571 | -105.15532 | 13642 ft | 241 kts | 255° |
| 2026-05-06 23:50 | 39.82023 | -105.17589 | 13854 ft | 241 kts | 255° |
| 2026-05-06 23:50 | 39.80930 | -105.21696 | 14245 ft | 240 kts | 256° |
| 2026-05-06 23:50 | 39.80383 | -105.23747 | 14437 ft | 240 kts | 256° |
| 2026-05-06 23:51 | 39.79836 | -105.25800 | 14625 ft | 240 kts | 256° |
| 2026-05-06 23:51 | 39.79287 | -105.27855 | 14821 ft | 241 kts | 256° |
| 2026-05-06 23:51 | 39.78735 | -105.29916 | 15001 ft | 242 kts | 256° |
| 2026-05-06 23:51 | 39.78189 | -105.31950 | 15197 ft | 242 kts | 256° |
| 2026-05-06 23:52 | 39.77633 | -105.34021 | 15392 ft | 243 kts | 256° |
| 2026-05-06 23:52 | 39.77077 | -105.36100 | 15571 ft | 244 kts | 256° |
| 2026-05-06 23:52 | 39.76644 | -105.38212 | 15767 ft | 240 kts | 267° |
| 2026-05-06 23:52 | 39.76636 | -105.40349 | 15953 ft | 233 kts | 284° |
| 2026-05-06 23:53 | 39.76991 | -105.42382 | 16151 ft | 232 kts | 282° |
| 2026-05-06 23:53 | 39.76695 | -105.44479 | 16345 ft | 245 kts | 253° |
| 2026-05-06 23:53 | 39.75929 | -105.46472 | 16556 ft | 249 kts | 249° |
| 2026-05-06 23:53 | 39.75109 | -105.48459 | 16756 ft | 250 kts | 248° |
| 2026-05-06 23:54 | 39.74280 | -105.50447 | 16933 ft | 251 kts | 248° |
| 2026-05-06 23:54 | 39.73460 | -105.52423 | 17143 ft | 253 kts | 248° |
| 2026-05-06 23:54 | 39.72623 | -105.54449 | 17355 ft | 256 kts | 249° |
| 2026-05-06 23:54 | 39.71773 | -105.56501 | 17570 ft | 259 kts | 248° |
| 2026-05-06 23:55 | 39.70919 | -105.58565 | 17787 ft | 262 kts | 249° |
| 2026-05-06 23:55 | 39.70049 | -105.60655 | 18003 ft | 264 kts | 248° |
| 2026-05-06 23:55 | 39.69175 | -105.62743 | 18213 ft | 263 kts | 248° |
| 2026-05-06 23:55 | 39.68299 | -105.64830 | 18369 ft | 263 kts | 250° |
| 2026-05-06 23:56 | 39.67444 | -105.66890 | 18550 ft | 262 kts | 252° |
| 2026-05-06 23:56 | 39.66672 | -105.69032 | 18742 ft | 262 kts | 255° |
| 2026-05-06 23:56 | 39.65936 | -105.71210 | 18925 ft | 264 kts | 255° |
| 2026-05-06 23:56 | 39.65201 | -105.73389 | 19119 ft | 264 kts | 255° |
| 2026-05-06 23:57 | 39.64462 | -105.75577 | 19301 ft | 265 kts | 255° |
| 2026-05-06 23:57 | 39.63721 | -105.77766 | 19486 ft | 264 kts | 255° |
| 2026-05-06 23:57 | 39.63003 | -105.79943 | 19654 ft | 261 kts | 256° |
| 2026-05-06 23:57 | 39.62299 | -105.82105 | 19851 ft | 259 kts | 256° |
| 2026-05-06 23:58 | 39.61604 | -105.84273 | 20030 ft | 261 kts | 258° |
| 2026-05-06 23:58 | 39.60936 | -105.86469 | 20031 ft | 269 kts | 258° |
| 2026-05-06 23:58 | 39.60263 | -105.88741 | 20011 ft | 272 kts | 258° |
| 2026-05-06 23:58 | 39.59587 | -105.91106 | 19820 ft | 288 kts | 258° |
| 2026-05-06 23:59 | 39.58886 | -105.93605 | 19660 ft | 301 kts | 258° |
| 2026-05-06 23:59 | 39.58164 | -105.96220 | 19500 ft | 313 kts | 258° |
| 2026-05-06 23:59 | 39.57429 | -105.98905 | 19339 ft | 320 kts | 258° |
| 2026-05-06 23:59 | 39.56861 | -106.01663 | 19150 ft | 313 kts | 269° |
| 2026-05-07 00:00 | 39.56655 | -106.04464 | 18867 ft | 314 kts | 273° |
| 2026-05-07 00:00 | 39.56415 | -106.07269 | 18645 ft | 320 kts | 269° |
| 2026-05-07 00:00 | 39.55976 | -106.10074 | 18365 ft | 314 kts | 264° |
| 2026-05-07 00:00 | 39.55492 | -106.12814 | 18042 ft | 312 kts | 265° |
| 2026-05-07 00:01 | 39.55094 | -106.15574 | 17710 ft | 311 kts | 266° |
| 2026-05-07 00:01 | 39.54716 | -106.18327 | 17403 ft | 309 kts | 266° |
| 2026-05-07 00:01 | 39.54309 | -106.21048 | 17079 ft | 305 kts | 265° |
| 2026-05-07 00:01 | 39.53903 | -106.23722 | 16762 ft | 301 kts | 265° |
| 2026-05-07 00:02 | 39.53512 | -106.26369 | 16465 ft | 299 kts | 265° |
| 2026-05-07 00:02 | 39.53127 | -106.28974 | 16159 ft | 298 kts | 264° |
| 2026-05-07 00:02 | 39.52733 | -106.31588 | 15851 ft | 294 kts | 264° |
| 2026-05-07 00:02 | 39.52347 | -106.34167 | 15538 ft | 289 kts | 264° |
| 2026-05-07 00:03 | 39.51973 | -106.36704 | 15221 ft | 288 kts | 264° |
| 2026-05-07 00:03 | 39.51590 | -106.39277 | 14933 ft | 290 kts | 263° |
| 2026-05-07 00:03 | 39.51199 | -106.41811 | 14635 ft | 284 kts | 262° |
| 2026-05-07 00:03 | 39.50825 | -106.44302 | 14345 ft | 280 kts | 262° |
| 2026-05-07 00:04 | 39.50457 | -106.46794 | 14087 ft | 283 kts | 262° |
| 2026-05-07 00:04 | 39.50095 | -106.49199 | 14052 ft | 270 kts | 262° |
| 2026-05-07 00:04 | 39.49726 | -106.51593 | 14061 ft | 271 kts | 263° |
| 2026-05-07 00:04 | 39.49362 | -106.53979 | 14173 ft | 270 kts | 262° |
| 2026-05-07 00:05 | 39.48991 | -106.56384 | 14253 ft | 273 kts | 263° |
| 2026-05-07 00:05 | 39.48640 | -106.58792 | 14343 ft | 272 kts | 263° |
| 2026-05-07 00:05 | 39.48284 | -106.61185 | 14447 ft | 270 kts | 264° |
| 2026-05-07 00:05 | 39.47932 | -106.63566 | 14544 ft | 269 kts | 263° |
| 2026-05-07 00:06 | 39.47556 | -106.65950 | 14563 ft | 273 kts | 263° |
| 2026-05-07 00:06 | 39.47179 | -106.68322 | 14562 ft | 265 kts | 263° |
| 2026-05-07 00:06 | 39.46827 | -106.70642 | 14550 ft | 263 kts | 262° |
| 2026-05-07 00:06 | 39.46481 | -106.72961 | 14563 ft | 269 kts | 262° |
| 2026-05-07 00:07 | 39.46116 | -106.75348 | 14565 ft | 271 kts | 262° |
| 2026-05-07 00:07 | 39.45747 | -106.77742 | 14565 ft | 271 kts | 262° |
| 2026-05-07 00:07 | 39.45378 | -106.80141 | 14564 ft | 271 kts | 262° |
| 2026-05-07 00:07 | 39.44919 | -106.82503 | 14560 ft | 273 kts | 253° |
| 2026-05-07 00:08 | 39.44017 | -106.84679 | 14553 ft | 277 kts | 238° |
| 2026-05-07 00:08 | 39.42707 | -106.86516 | 14553 ft | 279 kts | 223° |
| 2026-05-07 00:08 | 39.41065 | -106.87880 | 14604 ft | 284 kts | 208° |
| 2026-05-07 00:08 | 39.39189 | -106.88663 | 14331 ft | 289 kts | 192° |
| 2026-05-07 00:09 | 39.37248 | -106.88788 | 13975 ft | 270 kts | 177° |
| 2026-05-07 00:09 | 39.35452 | -106.88572 | 13564 ft | 251 kts | 175° |
| 2026-05-07 00:09 | 39.33745 | -106.88416 | 13001 ft | 241 kts | 182° |
| 2026-05-07 00:09 | 39.32184 | -106.89008 | 12434 ft | 231 kts | 210° |
| 2026-05-07 00:10 | 39.30735 | -106.89830 | 11903 ft | 229 kts | 193° |
| 2026-05-07 00:10 | 39.29164 | -106.89727 | 11229 ft | 225 kts | 167° |
| 2026-05-07 00:10 | 39.27741 | -106.89203 | 10856 ft | 191 kts | 157° |
| 2026-05-07 00:10 | 39.26906 | -106.87982 | 11157 ft | 188 kts | 105° |
| 2026-05-07 00:11 | 39.26794 | -106.86387 | 11826 ft | 163 kts | 89° |
| 2026-05-07 00:11 | 39.26792 | -106.85020 | 12041 ft | 149 kts | 84° |
| 2026-05-07 00:11 | 39.27060 | -106.83833 | 12210 ft | 135 kts | 47° |
| 2026-05-07 00:11 | 39.27796 | -106.83180 | 12099 ft | 140 kts | 5° |
| 2026-05-07 00:12 | 39.28808 | -106.83732 | 11545 ft | 171 kts | 323° |
| 2026-05-07 00:12 | 39.29703 | -106.84597 | 11225 ft | 155 kts | 320° |
| 2026-05-07 00:12 | 39.30448 | -106.85477 | 10889 ft | 132 kts | 299° |
| 2026-05-07 00:12 | 39.30455 | -106.86552 | 10387 ft | 120 kts | 253° |
| 2026-05-07 00:13 | 39.30169 | -106.87495 | 9912 ft | 120 kts | 241° |
| 2026-05-07 00:13 | 39.29522 | -106.88150 | 9274 ft | 123 kts | 211° |
| 2026-05-07 00:13 | 39.28736 | -106.88615 | 8698 ft | 128 kts | 198° |
| 2026-05-07 00:13 | 39.27886 | -106.88707 | 8398 ft | 123 kts | 180° |
| 2026-05-07 00:14 | 39.27063 | -106.88596 | 8212 ft | 115 kts | 175° |
| 2026-05-07 00:14 | 39.26300 | -106.88421 | 8091 ft | 105 kts | 167° |
| 2026-05-07 00:14 | 39.25586 | -106.88189 | 7957 ft | 108 kts | 169° |
| 2026-05-07 00:14 | 39.24867 | -106.87985 | 7879 ft | 106 kts | 169° |
| 2026-05-07 00:15 | 39.24162 | -106.87715 | 7854 ft | 107 kts | 167° |
| 2026-05-07 00:15 | 39.23456 | -106.87415 | 7751 ft | 104 kts | 163° |
| 2026-05-07 00:15 | 39.22814 | -106.87119 | 7713 ft | 90 kts | 161° |
| 2026-05-07 00:15 | 39.22482 | -106.86965 | 7736 ft | 18 kts | 160° |
| 2026-05-07 00:16 | 39.22411 | -106.86932 | 7741 ft | 8 kts | 160° |
| 2026-05-07 00:16 | 39.22360 | -106.86904 | 7743 ft | 10 kts | 151° |
| 2026-05-07 00:16 | 39.22327 | -106.86852 | 7745 ft | 6 kts | 94° |
| 2026-05-07 00:16 | 39.22337 | -106.86806 | 7745 ft | 4 kts | 58° |
| 2026-05-07 00:17 | 39.22348 | -106.86792 | 7745 ft | 1 kts | 33° |
| 2026-05-07 00:17 | 39.22383 | -106.86774 | 7745 ft | 7 kts | 36° |
| 2026-05-07 00:17 | 39.22394 | -106.86734 | 7748 ft | 2 kts | 78° |